Time;durP1;ratioP1;P1;durP2;ratioP2;P2;SDS_P1;SDS_P2;PMS_P1;PMS_P2;Temp;Humidity;BMP_temperature;BMP_pressure;BME280_temperature;BME280_humidity;BME280_pressure;Samples;Min_cycle;Max_cycle;Signal;HPM_P1;HPM_P2
2023/10/02 00:01:47;;;;;;;13.30;4.22;;;435.50;2355.20;;;;;;5072712;28;20028;-74
2023/10/02 00:04:19;;;;;;;13.32;4.38;;;435.30;2355.20;;;;;;5073525;28;20060;-74
2023/10/02 00:06:50;;;;;;;15.73;4.25;;;435.40;2355.20;;;;;;5073022;28;20044;-73
2023/10/02 00:09:20;;;;;;;9.82;5.32;;;435.30;2355.20;;;;;;5073136;28;20497;-74
2023/10/02 00:11:46;;;;;;;13.70;4.65;;;435.20;2355.20;;;;;;5072982;28;20088;-74
2023/10/02 00:14:22;;;;;;;15.57;4.90;;;435.20;2355.20;;;;;;5073188;28;20029;-75
2023/10/02 00:17:00;;;;;;;10.43;4.90;;;410.40;2355.20;;;;;;5072797;28;20541;-74
2023/10/02 00:19:46;;;;;;;14.13;5.28;;;410.30;2355.20;;;;;;5072779;28;20040;-74
2023/10/02 00:25:27;;;;;;;17.73;5.45;;;410.50;2355.20;;;;;;5060306;28;20044;-74
2023/10/02 00:27:54;;;;;;;15.10;5.07;;;410.30;2355.20;;;;;;5072741;28;20508;-74
2023/10/02 00:30:38;;;;;;;11.38;4.78;;;410.30;2355.20;;;;;;5073137;28;20028;-74
2023/10/02 00:33:05;;;;;;;13.90;5.90;;;410.20;2355.20;;;;;;5072590;28;20012;-73
2023/10/02 00:35:46;;;;;;;20.08;6.82;;;410.20;2355.20;;;;;;5072882;28;20028;-74
2023/10/02 00:38:12;;;;;;;19.00;6.78;;;410.10;2355.20;;;;;;5061465;28;20013;-74
2023/10/02 00:40:39;;;;;;;19.40;6.38;;;410.00;2355.20;;;;;;5072403;28;20052;-74
2023/10/02 00:45:50;;;;;;;15.10;7.38;;;410.00;2355.20;;;;;;5072603;28;20075;-74
2023/10/02 00:48:25;;;;;;;17.40;7.78;;;410.00;2355.20;;;;;;5072616;28;20101;-74
2023/10/02 00:50:58;;;;;;;23.15;7.88;;;409.70;2355.20;;;;;;5072117;28;20033;-74
2023/10/02 00:53:38;;;;;;;16.15;8.05;;;409.70;2355.20;;;;;;5072560;28;20020;-74
2023/10/02 00:56:22;;;;;;;19.95;8.70;;;409.70;2355.20;;;;;;5072716;28;20104;-74
2023/10/02 00:59:00;;;;;;;22.75;8.30;;;409.80;2355.20;;;;;;5061658;28;20469;-74
2023/10/02 01:01:27;;;;;;;24.15;9.43;;;409.80;2355.20;;;;;;5072279;28;20067;-74
2023/10/02 01:04:11;;;;;;;21.67;10.07;;;409.80;2355.20;;;;;;5072459;28;20087;-74
2023/10/02 01:09:25;;;;;;;18.73;8.63;;;409.90;2355.20;;;;;;5072765;28;20036;-74
2023/10/02 01:11:52;;;;;;;24.23;8.90;;;410.00;2355.20;;;;;;5072361;28;20017;-74
2023/10/02 01:14:40;;;;;;;21.65;9.63;;;410.10;2355.20;;;;;;5072496;28;20048;-74
2023/10/02 01:17:07;;;;;;;30.40;9.38;;;410.20;2355.20;;;;;;5071898;28;20033;-74
2023/10/02 01:19:52;;;;;;;26.33;8.90;;;410.20;2355.20;;;;;;5071762;28;20527;-75
2023/10/02 01:22:28;;;;;;;21.20;9.43;;;410.00;2355.20;;;;;;5072482;28;20029;-74
2023/10/02 01:25:13;;;;;;;25.52;9.85;;;409.90;2355.20;;;;;;5072094;28;20107;-74
2023/10/02 01:27:47;;;;;;;16.02;9.05;;;409.80;2355.20;;;;;;5070847;28;20036;-74
2023/10/02 01:30:18;;;;;;;25.20;10.55;;;409.70;2355.20;;;;;;5070945;28;20023;-74
2023/10/02 01:33:11;;;;;;;22.00;9.68;;;409.60;2355.20;;;;;;5072030;28;20120;-74
2023/10/02 01:35:48;;;;;;;22.35;10.07;;;409.60;2355.20;;;;;;5085686;28;20060;-74
2023/10/02 01:38:27;;;;;;;24.95;9.13;;;384.80;2329.60;;;;;;5072510;28;20024;-74
2023/10/02 01:41:06;;;;;;;27.58;9.43;;;384.70;2329.60;;;;;;5074557;28;20490;-74
2023/10/02 01:43:44;;;;;;;20.92;7.97;;;384.70;2329.60;;;;;;5076024;28;20032;-76
2023/10/02 01:46:11;;;;;;;29.08;9.55;;;384.70;2329.60;;;;;;5063050;28;20020;-75
2023/10/02 01:48:41;;;;;;;21.90;8.98;;;384.60;2329.60;;;;;;5075950;28;20416;-74
2023/10/02 01:51:20;;;;;;;19.40;9.07;;;384.60;2329.60;;;;;;5075627;28;20031;-74
2023/10/02 01:53:46;;;;;;;23.33;10.43;;;384.60;2329.60;;;;;;5075568;28;20062;-74
2023/10/02 01:56:12;;;;;;;18.63;9.02;;;384.60;2329.60;;;;;;5075629;28;20020;-73
2023/10/02 01:58:39;;;;;;;19.05;8.38;;;384.70;2329.60;;;;;;5075453;28;20016;-74
2023/10/02 02:01:09;;;;;;;25.77;9.82;;;384.80;2329.60;;;;;;5075619;28;20428;-75
2023/10/02 02:03:46;;;;;;;19.45;8.15;;;409.60;2355.20;;;;;;5075330;28;20017;-74
2023/10/02 02:06:16;;;;;;;21.38;8.80;;;384.90;2329.60;;;;;;5075557;28;20017;-75
2023/10/02 02:08:47;;;;;;;19.52;7.75;;;384.90;2329.60;;;;;;5075218;28;20054;-74
2023/10/02 02:11:20;;;;;;;22.40;9.23;;;384.90;2329.60;;;;;;5075227;28;20389;-74
2023/10/02 02:13:51;;;;;;;20.48;8.55;;;384.90;2329.60;;;;;;5075532;28;20042;-75
2023/10/02 02:16:21;;;;;;;20.20;8.25;;;384.90;2329.60;;;;;;5076135;28;20025;-74
2023/10/02 02:18:48;;;;;;;23.55;8.27;;;384.90;2329.60;;;;;;5075791;28;20017;-75
2023/10/02 02:21:19;;;;;;;21.52;8.15;;;409.60;2355.20;;;;;;5074991;28;20166;-74
2023/10/02 02:23:45;;;;;;;14.57;6.88;;;409.60;2355.20;;;;;;5075051;28;20063;-74
2023/10/02 02:26:21;;;;;;;16.40;7.20;;;384.90;2329.60;;;;;;5074942;28;20021;-74
2023/10/02 02:28:55;;;;;;;19.05;7.82;;;409.60;2355.20;;;;;;5073736;28;20154;-74
2023/10/02 02:31:29;;;;;;;16.08;7.70;;;384.90;2329.60;;;;;;5074967;28;20023;-74
2023/10/02 02:34:01;;;;;;;14.88;6.00;;;409.70;2355.20;;;;;;5074649;28;20070;-75
2023/10/02 02:36:28;;;;;;;13.05;6.40;;;409.70;2355.20;;;;;;5075160;28;20036;-75
2023/10/02 02:39:16;;;;;;;14.35;6.60;;;409.70;2355.20;;;;;;5074680;28;20033;-74
2023/10/02 02:42:08;;;;;;;18.67;6.85;;;409.70;2355.20;;;;;;5074616;28;20036;-75
2023/10/02 02:44:43;;;;;;;18.48;6.93;;;384.90;2329.60;;;;;;5062316;28;20055;-75
2023/10/02 02:47:13;;;;;;;16.80;6.13;;;384.80;2329.60;;;;;;5074566;28;20366;-74
2023/10/02 02:49:58;;;;;;;16.38;6.97;;;384.70;2329.60;;;;;;5074584;28;20020;-74
2023/10/02 02:52:33;;;;;;;15.50;6.30;;;384.80;2329.60;;;;;;5074471;28;20567;-74
2023/10/02 02:55:12;;;;;;;14.13;6.43;;;384.70;2329.60;;;;;;5074635;28;20033;-75
2023/10/02 02:57:40;;;;;;;15.30;6.22;;;384.90;2329.60;;;;;;5074394;28;20355;-74
2023/10/02 03:02:54;;;;;;;15.05;5.95;;;384.70;2329.60;;;;;;5074513;28;20031;-75
2023/10/02 03:05:22;;;;;;;14.10;6.28;;;384.90;2329.60;;;;;;5074137;28;20123;-75
2023/10/02 03:07:56;;;;;;;13.30;5.95;;;384.90;2329.60;;;;;;5074335;28;20453;-75
2023/10/02 03:10:23;;;;;;;16.65;6.53;;;384.90;2329.60;;;;;;5073929;28;20086;-75
2023/10/02 03:12:51;;;;;;;14.55;5.85;;;384.80;2329.60;;;;;;5074207;28;20060;-74
2023/10/02 03:15:19;;;;;;;16.23;6.65;;;384.70;2329.60;;;;;;5072862;28;20031;-74
2023/10/02 03:17:46;;;;;;;17.40;6.30;;;384.60;2329.60;;;;;;5073584;28;20467;-75
2023/10/02 03:20:24;;;;;;;18.90;6.75;;;384.70;2329.60;;;;;;5073468;28;20044;-74
2023/10/02 03:22:53;;;;;;;16.48;5.82;;;384.70;2329.60;;;;;;5073918;28;20024;-74
2023/10/02 03:25:41;;;;;;;14.65;7.10;;;384.70;2329.60;;;;;;5073944;28;20086;-74
2023/10/02 03:28:27;;;;;;;12.00;5.85;;;384.60;2329.60;;;;;;5073706;28;20028;-74
2023/10/02 03:30:57;;;;;;;12.15;6.63;;;384.60;2329.60;;;;;;5073662;28;20029;-75
2023/10/02 03:33:25;;;;;;;14.32;6.70;;;384.60;2329.60;;;;;;5073786;28;20028;-74
2023/10/02 03:36:08;;;;;;;16.08;6.70;;;384.70;2329.60;;;;;;5073585;28;20021;-74
2023/10/02 03:38:48;;;;;;;16.73;6.85;;;384.70;2329.60;;;;;;5073486;28;20059;-74
2023/10/02 03:41:15;;;;;;;12.38;6.85;;;384.50;2329.60;;;;;;5060689;28;20047;-75
2023/10/02 03:43:43;;;;;;;22.95;7.80;;;384.50;2329.60;;;;;;5073348;28;20028;-74
2023/10/02 03:46:22;;;;;;;14.05;6.57;;;384.50;2329.60;;;;;;5060602;28;20397;-74
2023/10/02 03:48:58;;;;;;;15.43;6.70;;;384.50;2329.60;;;;;;5073208;28;20465;-74
2023/10/02 03:51:36;;;;;;;14.82;7.65;;;384.60;2329.60;;;;;;5072057;28;20481;-74
2023/10/02 03:54:17;;;;;;;11.18;5.88;;;384.60;2329.60;;;;;;5073183;28;20163;-74
2023/10/02 03:56:48;;;;;;;11.38;6.60;;;384.60;2329.60;;;;;;5073018;28;20020;-74
2023/10/02 03:59:27;;;;;;;17.00;6.43;;;384.70;2329.60;;;;;;5073249;28;20066;-74
2023/10/02 04:04:46;;;;;;;13.35;6.60;;;384.60;2329.60;;;;;;5050746;28;20039;-74
2023/10/02 04:07:12;;;;;;;14.07;6.05;;;384.50;2329.60;;;;;;5050722;28;20028;-75
2023/10/02 04:09:38;;;;;;;18.45;7.00;;;384.50;2329.60;;;;;;5050746;28;20049;-74
2023/10/02 04:12:06;;;;;;;17.77;6.82;;;384.40;2329.60;;;;;;5050662;28;20052;-74
2023/10/02 04:14:33;;;;;;;16.00;6.10;;;384.40;2329.60;;;;;;5050418;28;20100;-75
2023/10/02 04:17:10;;;;;;;13.82;6.88;;;384.40;2329.60;;;;;;5050479;28;20029;-75
2023/10/02 04:19:43;;;;;;;11.90;5.85;;;384.40;2329.60;;;;;;5044602;28;20065;-75
2023/10/02 04:22:16;;;;;;;14.18;6.80;;;384.40;2329.60;;;;;;5050679;28;20039;-75
2023/10/02 04:25:06;;;;;;;16.73;5.90;;;384.40;2329.60;;;;;;5050440;28;20017;-75
2023/10/02 04:32:42;;;;;;;14.38;6.00;;;384.50;2329.60;;;;;;5027854;28;20045;-74
2023/10/02 04:37:59;;;;;;;15.23;6.20;;;384.60;2329.60;;;;;;5050533;28;20063;-75
2023/10/02 04:40:37;;;;;;;15.35;6.88;;;384.60;2329.60;;;;;;5007445;28;20053;-74
2023/10/02 04:43:38;;;;;;;17.30;6.15;;;384.60;2329.60;;;;;;5072757;28;20543;-75
2023/10/02 04:46:08;;;;;;;17.98;6.35;;;384.70;2329.60;;;;;;5070863;28;20052;-75
2023/10/02 04:48:39;;;;;;;17.02;6.00;;;384.70;2329.60;;;;;;5072604;28;20378;-74
2023/10/02 04:51:09;;;;;;;11.43;5.97;;;384.40;2329.60;;;;;;5071978;28;20024;-73
2023/10/02 04:53:46;;;;;;;12.68;6.68;;;384.40;2329.60;;;;;;5072513;28;20024;-73
2023/10/02 04:58:51;;;;;;;12.98;5.78;;;384.30;2329.60;;;;;;5072564;28;20027;-74
2023/10/02 05:02:17;;;;;;;22.38;6.43;;;384.30;2329.60;;;;;;5072269;28;20067;-74
2023/10/02 05:04:18;;;;;;;19.98;6.55;;;384.40;2329.60;;;;;;5072114;28;20027;-75
2023/10/02 05:06:44;;;;;;;16.17;5.85;;;384.40;2329.60;;;;;;5071044;28;20036;-75
2023/10/02 05:14:28;;;;;;;17.15;6.00;;;384.10;2329.60;;;;;;5069856;28;20136;-75
2023/10/02 05:19:56;;;;;;;21.05;5.95;;;384.30;2329.60;;;;;;5082132;28;20031;-74
2023/10/02 05:22:24;;;;;;;11.43;6.03;;;384.30;2329.60;;;;;;5071909;28;20032;-75
2023/10/02 05:24:58;;;;;;;10.73;5.50;;;384.20;2329.60;;;;;;5072646;28;20167;-73
2023/10/02 05:27:29;;;;;;;10.40;5.47;;;384.30;2329.60;;;;;;5071931;28;20020;-75
2023/10/02 05:29:55;;;;;;;12.18;5.60;;;384.30;2329.60;;;;;;5071519;28;20078;-74
2023/10/02 05:32:24;;;;;;;9.65;5.18;;;384.20;2329.60;;;;;;5070145;28;20021;-74
2023/10/02 05:37:48;;;;;;;13.80;6.07;;;384.30;2329.60;;;;;;5013545;28;20072;-74
2023/10/02 05:48:14;;;;;;;14.10;5.05;;;384.60;2329.60;;;;;;5014023;28;20072;-75
2023/10/02 05:50:49;;;;;;;13.18;5.50;;;384.60;2329.60;;;;;;5014213;28;20033;-75
2023/10/02 05:53:19;;;;;;;16.73;5.55;;;384.70;2329.60;;;;;;5012996;28;20029;-75
2023/10/02 05:55:57;;;;;;;11.52;4.70;;;384.70;2329.60;;;;;;5013400;28;20482;-75
2023/10/02 05:58:32;;;;;;;12.48;5.18;;;384.90;2329.60;;;;;;5013007;28;20018;-75
2023/10/02 06:01:06;;;;;;;11.15;5.22;;;384.90;2329.60;;;;;;5013038;28;20057;-74
2023/10/02 06:03:34;;;;;;;12.88;5.55;;;409.70;2355.20;;;;;;5013044;28;20033;-74
2023/10/02 06:06:23;;;;;;;12.45;5.97;;;409.70;2355.20;;;;;;4996216;28;20053;-74
2023/10/02 06:09:03;;;;;;;12.48;6.55;;;409.80;2355.20;;;;;;5009887;28;20142;-74
2023/10/02 06:11:33;;;;;;;16.55;5.35;;;409.70;2355.20;;;;;;5013064;28;20498;-74
2023/10/02 06:14:10;;;;;;;13.05;5.72;;;409.90;2355.20;;;;;;5035597;28;20127;-74
2023/10/02 06:16:39;;;;;;;13.63;5.88;;;410.00;2355.20;;;;;;5064262;28;20017;-74
2023/10/02 06:19:07;;;;;;;11.98;5.50;;;410.20;2355.20;;;;;;5079215;28;20020;-74
2023/10/02 06:22:13;;;;;;;14.73;6.80;;;410.40;2355.20;;;;;;5064187;28;20039;-76
2023/10/02 06:24:28;;;;;;;11.23;6.00;;;435.20;2355.20;;;;;;5060919;28;20556;-74
2023/10/02 06:26:57;;;;;;;11.68;5.82;;;435.30;2355.20;;;;;;5079083;28;20017;-76
2023/10/02 06:29:35;;;;;;;15.43;5.95;;;435.60;2355.20;;;;;;5076759;28;20020;-75
2023/10/02 06:32:11;;;;;;;17.88;6.78;;;435.70;2355.20;;;;;;5061166;28;20095;-74
2023/10/02 06:34:44;;;;;;;16.52;5.72;;;435.80;2355.20;;;;;;5070794;28;20008;-75
2023/10/02 06:37:16;;;;;;;14.43;5.97;;;460.80;2380.80;;;;;;5079058;28;20017;-75
2023/10/02 06:42:48;;;;;;;12.55;6.78;;;461.30;2380.80;;;;;;5069518;28;20090;-74
2023/10/02 06:45:18;;;;;;;12.00;6.30;;;461.70;2380.80;;;;;;5079953;28;20427;-75
2023/10/02 06:47:44;;;;;;;15.52;6.28;;;486.40;2380.80;;;;;;5070399;28;20058;-74
2023/10/02 06:52:55;;;;;;;14.88;6.95;;;486.80;2380.80;;;;;;5061479;28;20608;-73
2023/10/02 06:55:21;;;;;;;21.08;6.47;;;486.80;2380.80;;;;;;5075783;28;20110;-74
2023/10/02 06:57:50;;;;;;;11.30;5.95;;;487.30;2380.80;;;;;;5073365;28;20016;-76
2023/10/02 07:00:19;;;;;;;20.63;6.85;;;512.10;2380.80;;;;;;5078842;28;20083;-73
2023/10/02 07:02:57;;;;;;;14.63;6.60;;;512.40;2380.80;;;;;;5066752;28;20031;-74
2023/10/02 07:05:32;;;;;;;9.85;5.60;;;512.30;2380.80;;;;;;5066584;28;20020;-74
2023/10/02 07:08:22;;;;;;;13.05;6.30;;;512.60;2380.80;;;;;;5069868;28;20109;-76
2023/10/02 07:10:48;;;;;;;16.48;6.03;;;512.90;2380.80;;;;;;5075138;28;20067;-75
2023/10/02 07:13:21;;;;;;;16.23;6.18;;;537.90;2406.40;;;;;;5066481;28;20047;-75
2023/10/02 07:15:48;;;;;;;18.10;7.45;;;537.80;2406.40;;;;;;5058273;28;20055;-76
2023/10/02 07:18:14;;;;;;;20.38;6.38;;;538.00;2406.40;;;;;;5074803;28;20437;-76
2023/10/02 07:20:44;;;;;;;15.00;5.72;;;538.10;2406.40;;;;;;5077511;28;20036;-75
2023/10/02 07:23:19;;;;;;;13.50;6.28;;;538.20;2406.40;;;;;;5061440;28;20082;-76
2023/10/02 07:25:51;;;;;;;14.88;6.38;;;538.40;2406.40;;;;;;5060758;28;20028;-76
2023/10/02 07:28:21;;;;;;;15.75;6.63;;;538.50;2406.40;;;;;;5078419;28;20461;-77
2023/10/02 07:30:50;;;;;;;12.95;6.05;;;563.30;2432.00;;;;;;5071263;28;20462;-77
2023/10/02 07:33:20;;;;;;;15.52;7.20;;;563.40;2406.40;;;;;;5079159;28;20354;-77
2023/10/02 07:35:52;;;;;;;15.75;7.00;;;563.50;2406.40;;;;;;5078582;28;20377;-73
2023/10/02 07:38:22;;;;;;;18.42;6.78;;;563.60;2380.80;;;;;;5071092;28;20416;-74
2023/10/02 07:40:49;;;;;;;12.20;6.65;;;563.60;2329.60;;;;;;5076675;28;20083;-76
2023/10/02 07:43:18;;;;;;;20.15;7.60;;;563.70;2355.20;;;;;;5064995;28;20020;-75
2023/10/02 07:46:01;;;;;;;16.63;6.13;;;564.00;2278.40;;;;;;5062578;28;20016;-74
2023/10/02 07:48:33;;;;;;;24.85;7.15;;;564.00;2304.00;;;;;;5069870;28;20024;-75
2023/10/02 07:51:03;;;;;;;16.25;6.60;;;564.10;2278.40;;;;;;5063542;28;20565;-75
2023/10/02 07:53:41;;;;;;;18.08;7.07;;;588.80;2201.60;;;;;;5076153;28;20027;-75
2023/10/02 07:56:11;;;;;;;13.93;5.90;;;588.90;2176.00;;;;;;5069585;28;20031;-74
2023/10/02 07:58:43;;;;;;;14.35;6.32;;;588.90;2176.00;;;;;;5077788;28;20069;-75
2023/10/02 08:01:12;;;;;;;11.52;6.07;;;589.10;2176.00;;;;;;5083434;28;20047;-77
2023/10/02 08:03:44;;;;;;;18.67;6.50;;;589.20;2124.80;;;;;;5068923;28;20474;-74
2023/10/02 08:06:33;;;;;;;15.50;6.10;;;589.30;2099.20;;;;;;5073830;28;20068;-75
2023/10/02 08:11:53;;;;;;;17.38;6.07;;;589.20;2073.60;;;;;;5073116;28;20082;-75
2023/10/02 08:14:38;;;;;;;18.95;5.85;;;589.20;2073.60;;;;;;5069785;28;20390;-75
2023/10/02 08:17:27;;;;;;;14.77;5.38;;;589.20;2073.60;;;;;;5072349;28;20432;-74
2023/10/02 08:19:56;;;;;;;17.58;5.78;;;589.40;2022.40;;;;;;5066076;28;20126;-75
2023/10/02 08:22:35;;;;;;;16.05;4.60;;;589.70;1945.60;;;;;;5073402;28;20035;-75
2023/10/02 08:25:02;;;;;;;13.77;4.85;;;614.50;1945.60;;;;;;5061407;28;20027;-73
2023/10/02 08:27:32;;;;;;;16.50;5.25;;;614.70;1894.40;;;;;;5063352;28;20053;-74
2023/10/02 08:30:00;;;;;;;13.23;5.18;;;614.70;1920.00;;;;;;5083282;28;20376;-74
2023/10/02 08:32:30;;;;;;;13.57;4.50;;;614.70;1894.40;;;;;;5078187;28;20086;-75
2023/10/02 08:34:57;;;;;;;12.05;4.80;;;614.80;1894.40;;;;;;5075426;28;20114;-76
2023/10/02 08:37:25;;;;;;;11.93;5.43;;;614.40;1971.20;;;;;;5078122;28;20021;-76
2023/10/02 08:39:51;;;;;;;18.27;5.40;;;614.50;1945.60;;;;;;5076384;28;20048;-75
2023/10/02 08:42:23;;;;;;;17.25;5.95;;;614.90;1894.40;;;;;;5074963;28;20020;-75
2023/10/02 08:44:49;;;;;;;15.02;5.60;;;614.80;1945.60;;;;;;5077998;28;20029;-76
2023/10/02 08:47:24;;;;;;;15.85;5.30;;;615.00;1920.00;;;;;;5072312;28;21384;-74
2023/10/02 08:50:03;;;;;;;12.57;5.82;;;615.10;1920.00;;;;;;5072740;28;20547;-75
2023/10/02 08:52:38;;;;;;;15.45;5.18;;;615.30;1868.80;;;;;;5077960;28;20025;-75
2023/10/02 08:58:18;;;;;;;11.57;4.55;;;640.20;1740.80;;;;;;5051943;28;20146;-75
2023/10/02 09:01:17;;;;;;;13.10;4.60;;;640.20;1715.20;;;;;;5049698;28;20178;-75
2023/10/02 09:06:41;;;;;;;14.80;4.53;;;640.60;1638.40;;;;;;5044623;28;20133;-75
2023/10/02 09:11:41;;;;;;;12.00;4.03;;;665.60;1612.80;;;;;;5053811;28;20071;-73
2023/10/02 09:17:07;;;;;;;13.60;4.93;;;640.70;1664.00;;;;;;5055703;28;20036;-76
2023/10/02 09:19:34;;;;;;;13.00;5.00;;;640.70;1612.80;;;;;;5052272;28;20064;-75
2023/10/02 09:22:07;;;;;;;16.40;4.88;;;665.60;1664.00;;;;;;5053615;28;20040;-75
2023/10/02 09:24:37;;;;;;;19.40;6.32;;;665.70;1612.80;;;;;;5052215;28;20021;-75
2023/10/02 09:27:23;;;;;;;13.10;4.18;;;665.70;1664.00;;;;;;5051921;28;20040;-75
2023/10/02 09:30:15;;;;;;;15.07;5.60;;;666.20;1612.80;;;;;;5048398;28;20029;-76
2023/10/02 09:32:47;;;;;;;14.93;4.18;;;665.90;1561.60;;;;;;5053822;28;20124;-76
2023/10/02 09:38:06;;;;;;;10.27;4.28;;;666.00;1561.60;;;;;;5071770;28;20444;-75
2023/10/02 09:40:54;;;;;;;12.23;5.00;;;691.20;1510.40;;;;;;5083991;28;20087;-74
2023/10/02 09:43:22;;;;;;;10.52;4.55;;;;;;;;;;5067313;28;20473;-75
2023/10/02 09:45:49;;;;;;;9.70;4.50;;;;;;;;;;5080024;28;20442;-76
2023/10/02 09:51:15;;;;;;;7.50;4.13;;;691.70;1459.20;;;;;;5071756;28;20036;-76
2023/10/02 09:54:04;;;;;;;14.43;4.50;;;691.90;1433.60;;;;;;5080740;28;20016;-76
2023/10/02 09:56:51;;;;;;;10.75;4.28;;;692.10;1459.20;;;;;;5075668;28;20029;-75
2023/10/02 09:59:19;;;;;;;7.53;3.65;;;716.80;1433.60;;;;;;5073441;28;20469;-77
2023/10/02 10:10:48;;;;;;;11.15;4.45;;;717.20;1408.00;;;;;;5075525;28;20050;-77
2023/10/02 10:13:37;;;;;;;15.80;4.40;;;717.20;1408.00;;;;;;5081626;28;20032;-78
2023/10/02 10:16:29;;;;;;;9.00;4.25;;;717.50;1382.40;;;;;;5079076;28;20530;-78
2023/10/02 10:22:00;;;;;;;9.48;3.95;;;717.50;1408.00;;;;;;5078278;28;20048;-77
2023/10/02 10:24:56;;;;;;;19.83;4.93;;;717.70;1382.40;;;;;;5064510;28;20020;-78
2023/10/02 10:27:40;;;;;;;9.15;3.70;;;717.70;1382.40;;;;;;5070877;28;20068;-78
2023/10/02 10:33:20;;;;;;;9.98;4.30;;;742.40;1408.00;;;;;;5012369;28;20041;-77
2023/10/02 10:35:57;;;;;;;11.95;3.95;;;742.50;1382.40;;;;;;5013433;28;20033;-77
2023/10/02 10:38:26;;;;;;;12.85;3.80;;;742.50;1356.80;;;;;;5017882;28;20515;-78
2023/10/02 10:41:01;;;;;;;8.52;3.83;;;742.40;1408.00;;;;;;5016568;28;20050;-76
2023/10/02 10:46:28;;;;;;;11.75;3.72;;;742.40;1382.40;;;;;;5012615;28;20068;-77
2023/10/02 10:49:23;;;;;;;10.02;4.18;;;742.60;1382.40;;;;;;5016459;28;20034;-77
2023/10/02 10:51:52;;;;;;;14.02;5.15;;;742.70;1382.40;;;;;;5007245;28;20510;-77
2023/10/02 10:54:30;;;;;;;16.23;7.35;;;742.70;1382.40;;;;;;4994991;28;20032;-77
2023/10/02 10:59:45;;;;;;;26.67;13.95;;;742.90;1331.20;;;;;;5024429;28;20130;-76
2023/10/02 11:02:17;;;;;;;107.13;59.55;;;742.90;1331.20;;;;;;5012921;28;20026;-76
2023/10/02 11:04:49;;;;;;;31.77;14.13;;;743.00;1331.20;;;;;;5011876;28;20049;-77
2023/10/02 11:07:19;;;;;;;18.38;7.45;;;742.90;1356.80;;;;;;5006602;28;20056;-77
2023/10/02 11:10:15;;;;;;;16.55;6.00;;;742.90;1382.40;;;;;;5049640;28;20122;-77
2023/10/02 11:12:58;;;;;;;9.43;4.55;;;743.00;1331.20;;;;;;5066260;28;20086;-77
2023/10/02 11:15:46;;;;;;;15.68;5.82;;;743.00;1331.20;;;;;;5074085;28;20024;-77
2023/10/02 11:18:20;;;;;;;11.77;5.63;;;743.00;1331.20;;;;;;5080590;28;20055;-77
2023/10/02 11:20:51;;;;;;;13.27;5.00;;;743.00;1280.00;;;;;;5073208;28;20370;-77
2023/10/02 11:23:40;;;;;;;15.00;7.85;;;742.90;1331.20;;;;;;5073518;28;21143;-78
2023/10/02 11:26:13;;;;;;;19.27;4.88;;;743.00;1305.60;;;;;;5060280;28;20021;-77
2023/10/02 11:28:41;;;;;;;13.35;6.82;;;743.00;1280.00;;;;;;5074288;28;20028;-77
2023/10/02 11:31:45;;;;;;;13.68;5.45;;;743.00;1280.00;;;;;;5085096;28;20077;-77
2023/10/02 11:34:11;;;;;;;13.60;4.10;;;743.20;1254.40;;;;;;5077754;28;20108;-77
2023/10/02 11:36:39;;;;;;;8.93;4.55;;;743.20;1280.00;;;;;;5078608;28;20103;-77
2023/10/02 11:39:09;;;;;;;19.52;4.95;;;743.10;1305.60;;;;;;5056023;28;20071;-78
2023/10/02 11:41:39;;;;;;;12.88;4.43;;;743.30;1254.40;;;;;;5070009;28;20478;-79
2023/10/02 11:44:12;;;;;;;8.55;3.95;;;743.30;1280.00;;;;;;5082093;28;20368;-78
2023/10/02 11:46:40;;;;;;;13.18;4.63;;;743.20;1280.00;;;;;;5072522;28;20028;-77
2023/10/02 11:49:06;;;;;;;12.73;4.07;;;743.20;1280.00;;;;;;5078789;28;20024;-77
2023/10/02 11:51:33;;;;;;;11.10;4.40;;;743.20;1254.40;;;;;;5063557;28;20021;-78
2023/10/02 11:54:01;;;;;;;8.73;4.45;;;742.60;1305.60;;;;;;5081597;28;20527;-77
2023/10/02 11:56:27;;;;;;;11.40;4.43;;;742.60;1280.00;;;;;;5069679;28;20047;-77
2023/10/02 11:58:53;;;;;;;18.48;4.60;;;742.80;1280.00;;;;;;5063025;28;20024;-76
2023/10/02 12:01:24;;;;;;;12.68;3.85;;;743.00;1305.60;;;;;;5074758;28;20485;-76
2023/10/02 12:03:50;;;;;;;9.77;3.95;;;742.90;1280.00;;;;;;5060901;28;20189;-75
2023/10/02 12:06:17;;;;;;;8.73;4.20;;;743.00;1254.40;;;;;;5075733;28;20020;-75
2023/10/02 12:08:44;;;;;;;9.02;3.72;;;743.00;1254.40;;;;;;5083447;28;20024;-75
2023/10/02 12:11:13;;;;;;;10.10;4.63;;;742.90;1305.60;;;;;;5080896;28;20164;-75
2023/10/02 12:13:40;;;;;;;9.18;4.25;;;743.00;1280.00;;;;;;5070810;28;20035;-77
2023/10/02 12:16:10;;;;;;;13.40;4.60;;;743.20;1280.00;;;;;;5064359;28;20017;-77
2023/10/02 12:18:41;;;;;;;11.27;3.88;;;743.30;1280.00;;;;;;5068597;28;20093;-77
2023/10/02 12:21:14;;;;;;;14.85;4.88;;;743.20;1305.60;;;;;;5071151;28;20024;-78
2023/10/02 12:23:43;;;;;;;9.57;4.20;;;743.30;1280.00;;;;;;5072988;28;20017;-76
2023/10/02 12:26:20;;;;;;;11.82;4.75;;;743.30;1280.00;;;;;;5071787;28;20025;-77
2023/10/02 12:28:49;;;;;;;11.18;4.80;;;743.30;1280.00;;;;;;5068886;28;20067;-76
2023/10/02 12:31:19;;;;;;;8.43;3.70;;;743.30;1254.40;;;;;;5074226;28;20048;-77
2023/10/02 12:33:46;;;;;;;13.00;3.88;;;743.30;1228.80;;;;;;5071234;28;20052;-77
2023/10/02 12:36:22;;;;;;;7.55;3.97;;;743.00;1228.80;;;;;;5068189;28;20024;-78
2023/10/02 12:38:50;;;;;;;12.73;4.47;;;743.00;1254.40;;;;;;5069157;28;20083;-77
2023/10/02 12:41:30;;;;;;;11.25;4.15;;;742.90;1254.40;;;;;;5070773;28;20048;-77
2023/10/02 12:43:56;;;;;;;7.97;4.10;;;742.80;1331.20;;;;;;5066288;28;20067;-77
2023/10/02 12:46:27;;;;;;;10.57;4.00;;;742.80;1305.60;;;;;;5073379;28;20032;-77
2023/10/02 12:48:57;;;;;;;10.25;3.85;;;742.90;1280.00;;;;;;5068263;28;20020;-77
2023/10/02 12:51:25;;;;;;;8.43;4.03;;;742.80;1280.00;;;;;;5071142;28;20028;-78
2023/10/02 12:53:51;;;;;;;9.98;3.90;;;742.80;1280.00;;;;;;5074253;28;20485;-78
2023/10/02 12:56:21;;;;;;;11.18;4.13;;;742.80;1254.40;;;;;;5075355;28;20056;-77
2023/10/02 12:58:52;;;;;;;13.77;4.50;;;742.60;1280.00;;;;;;5074951;28;20070;-76
2023/10/02 13:01:28;;;;;;;11.30;4.25;;;742.70;1254.40;;;;;;5069831;28;20048;-77
2023/10/02 13:03:54;;;;;;;10.65;4.32;;;742.60;1280.00;;;;;;5065003;28;20028;-79
2023/10/02 13:06:22;;;;;;;9.55;4.20;;;742.60;1254.40;;;;;;5068934;28;20028;-78
2023/10/02 13:08:48;;;;;;;10.80;3.88;;;742.60;1280.00;;;;;;5067654;28;20035;-75
2023/10/02 13:11:20;;;;;;;11.68;3.92;;;742.50;1280.00;;;;;;5071147;28;20036;-75
2023/10/02 13:13:51;;;;;;;10.80;4.60;;;742.60;1280.00;;;;;;5068705;28;20021;-76
2023/10/02 13:16:18;;;;;;;7.20;3.72;;;742.50;1280.00;;;;;;5083938;28;20012;-77
2023/10/02 13:18:45;;;;;;;12.38;3.92;;;742.40;1305.60;;;;;;5072261;28;20025;-76
2023/10/02 13:21:19;;;;;;;6.60;3.88;;;717.70;1254.40;;;;;;5065765;28;20042;-76
2023/10/02 13:23:46;;;;;;;9.38;4.30;;;717.60;1254.40;;;;;;5069640;28;20016;-77
2023/10/02 13:26:19;;;;;;;11.45;4.07;;;717.50;1254.40;;;;;;5067325;28;20020;-77
2023/10/02 13:28:48;;;;;;;8.07;3.92;;;717.70;1280.00;;;;;;5072471;28;20016;-76
2023/10/02 13:31:17;;;;;;;9.80;3.92;;;717.60;1254.40;;;;;;5087056;28;20032;-75
2023/10/02 13:33:46;;;;;;;8.77;3.88;;;717.50;1280.00;;;;;;5079717;28;20012;-76
2023/10/02 13:36:15;;;;;;;10.48;4.10;;;717.50;1331.20;;;;;;5072173;28;20438;-76
2023/10/02 13:38:41;;;;;;;14.27;4.43;;;717.40;1280.00;;;;;;5077477;28;20036;-75
2023/10/02 13:41:11;;;;;;;12.35;3.70;;;717.30;1280.00;;;;;;5074992;28;20040;-76
2023/10/02 13:43:41;;;;;;;8.25;4.03;;;717.20;1254.40;;;;;;5071992;28;20025;-78
2023/10/02 13:46:11;;;;;;;7.95;3.67;;;717.20;1254.40;;;;;;5062402;28;20074;-76
2023/10/02 13:48:49;;;;;;;11.85;3.40;;;716.90;1280.00;;;;;;5074024;28;20122;-77
2023/10/02 13:51:18;;;;;;;10.88;3.67;;;716.80;1305.60;;;;;;5082477;28;20013;-77
2023/10/02 13:53:45;;;;;;;10.05;3.58;;;716.90;1305.60;;;;;;5084976;28;20033;-77
2023/10/02 13:56:21;;;;;;;14.07;4.38;;;692.00;1331.20;;;;;;5077879;28;20162;-78
2023/10/02 13:58:50;;;;;;;10.50;3.92;;;692.10;1331.20;;;;;;5070852;28;20028;-78
2023/10/02 14:01:19;;;;;;;9.43;4.28;;;692.00;1331.20;;;;;;5072691;28;20121;-79
2023/10/02 14:03:46;;;;;;;11.48;5.00;;;692.00;1331.20;;;;;;5073136;28;20496;-77
2023/10/02 14:06:14;;;;;;;8.00;3.63;;;691.80;1331.20;;;;;;5069019;28;20025;-78
2023/10/02 14:08:40;;;;;;;12.23;4.78;;;691.80;1331.20;;;;;;5077891;28;20409;-79
2023/10/02 14:11:08;;;;;;;9.23;3.42;;;691.70;1305.60;;;;;;5071874;28;20021;-77